Pagrindinis puslapis
METAR-TAF:

METAR-TAF

Oro uostai :

Punta Arenasas, Čilė

platuma: 53-00S, ilguma: 070-51W, Aukštis: 37 m

Dabartinis oras

Ataskaita buvo paskelbta 33 minutes, ne 12:00 UTC
Vėjas 7 kt iš Pietų/Pietvakarių
Temperatūra -1°C
Drėgmė 86%
Slėgis 1017 hPa
Matomumas 10 km arba daugiau
nėra debesų žemiau 1500 m ir nėra kamuolinių lietaus debesų

METAR: SCCI 151200Z AUTO 20007KT CAVOK M01/M03 Q1017

Laikas: 08:33 (12:33 UTC)

Prognozė

Ataskaita buvo paskelbta 1 valandą ir 36 minutes, ne 10:57 UTC
Prognozė galioja nuo 15 metu 12 UTC su 16 metu 12 UTC
Vėjas 6 kt iš Pietų
Matomumas 10 km arba daugiau
Mažai debesys ne aukštis 1500 ft
Išsisklaidę debesys ne aukštis 3500 ft
Laikinai
nuo 15 metu 12 UTC su 15 metu 22 UTC
Vėjas 8 kt iš Pietvakarių
Tapsmas
nuo 16 metu 02 UTC su 16 metu 04 UTC
Mažai debesys ne aukštis 1000 ft
Išsisklaidę debesys ne aukštis 2500 ft

TAF: SCCI 151057Z 1512/1612 19006KT 9999 FEW015 SCT035 TNM04/1610Z TX02/1520Z TEMPO 1512/1522 22008KT BECMG 1602/1604 FEW010 SCT025

Orai ataskaitas ir orų prognozės (METAR, TAF).

turimą stotys yra geltonos ir raudonos taškus žemėlapyje.

Perkelti pele per norėdami pamatyti stoties vardą.

Tada spustelėkite, norėdami matyti oro stebėjimo ir prognozės.

Norėdami pakeisti žemėlapį: spustelėkite ant žalios mygtukų su juodo kryžiaus žemyn,; žalią mygtuką su brūkšneliu, jei norite nutolinti; arba žalių rodyklių gretimoms žemėlapius.


METAR-TAF: